Time;durP1;ratioP1;P1;durP2;ratioP2;P2;SDS_P1;SDS_P2;PMS_P1;PMS_P2;Temp;Humidity;BMP_temperature;BMP_pressure;BME280_temperature;BME280_humidity;BME280_pressure;Samples;Min_cycle;Max_cycle;Signal;HPM_P1;HPM_P2
2021/04/18 00:00:17;;;;;;;12.98;6.13;;;;;;;;;;5069481;28;20106;-66
2021/04/18 00:02:43;;;;;;;20.08;6.47;;;;;;;;;;5056357;28;20044;-65
2021/04/18 00:05:09;;;;;;;16.50;6.20;;;;;;;;;;5065305;28;20465;-66
2021/04/18 00:07:34;;;;;;;14.48;5.38;;;;;;;;;;5053249;28;20021;-66
2021/04/18 00:09:59;;;;;;;21.13;6.20;;;;;;;;;;5051623;28;20017;-65
2021/04/18 00:12:25;;;;;;;11.38;6.00;;;;;;;;;;5065949;28;20085;-66
2021/04/18 00:14:50;;;;;;;15.32;6.45;;;;;;;;;;5070630;28;20021;-67
2021/04/18 00:17:16;;;;;;;15.93;7.05;;;;;;;;;;5069752;28;20388;-65
2021/04/18 00:19:41;;;;;;;14.85;6.35;;;;;;;;;;5071638;28;20673;-65
2021/04/18 00:22:06;;;;;;;10.98;5.95;;;;;;;;;;5071137;28;20099;-67
2021/04/18 00:24:31;;;;;;;13.88;5.72;;;;;;;;;;5072468;28;20024;-65
2021/04/18 00:26:56;;;;;;;12.95;6.20;;;;;;;;;;5072126;28;20020;-66
2021/04/18 00:29:22;;;;;;;12.57;5.50;;;;;;;;;;5071793;28;20106;-65
2021/04/18 00:31:47;;;;;;;19.73;6.47;;;;;;;;;;5066072;28;20399;-66
2021/04/18 00:34:12;;;;;;;13.10;6.10;;;;;;;;;;5060773;28;20020;-65
2021/04/18 00:36:37;;;;;;;13.80;6.05;;;;;;;;;;5072437;28;20442;-66
2021/04/18 00:39:02;;;;;;;16.47;5.80;;;;;;;;;;5071526;28;20032;-66
2021/04/18 00:41:28;;;;;;;16.33;6.10;;;;;;;;;;5068227;28;20635;-65
2021/04/18 00:43:53;;;;;;;16.10;6.03;;;;;;;;;;5071393;28;20022;-66
2021/04/18 00:46:18;;;;;;;21.60;7.10;;;;;;;;;;5067865;28;20029;-66
2021/04/18 00:48:44;;;;;;;17.23;6.32;;;;;;;;;;5067478;28;20021;-67
2021/04/18 00:51:10;;;;;;;15.43;6.07;;;;;;;;;;5071549;28;20051;-66
2021/04/18 00:53:35;;;;;;;10.40;5.60;;;;;;;;;;5052726;28;20048;-67
2021/04/18 00:56:01;;;;;;;17.38;7.00;;;;;;;;;;5053329;28;20567;-66
2021/04/18 00:58:26;;;;;;;22.35;7.07;;;;;;;;;;5068189;28;20419;-65
2021/04/18 01:00:51;;;;;;;18.30;6.93;;;;;;;;;;5070675;28;20028;-65
2021/04/18 01:03:16;;;;;;;13.88;6.28;;;;;;;;;;5068972;28;20111;-65
2021/04/18 01:05:42;;;;;;;13.63;5.53;;;;;;;;;;5069720;28;20021;-67
2021/04/18 01:08:09;;;;;;;13.18;5.90;;;;;;;;;;5061237;28;20505;-66
2021/04/18 01:10:35;;;;;;;14.63;5.90;;;;;;;;;;5051754;28;20020;-65
2021/04/18 01:13:00;;;;;;;19.35;5.85;;;;;;;;;;5066314;28;20384;-68
2021/04/18 01:15:25;;;;;;;19.67;6.30;;;;;;;;;;5071599;28;20069;-66
2021/04/18 01:17:50;;;;;;;20.17;6.47;;;;;;;;;;5070526;28;20016;-66
2021/04/18 01:20:17;;;;;;;27.45;6.90;;;;;;;;;;5069949;28;20032;-65
2021/04/18 01:22:43;;;;;;;13.88;6.05;;;;;;;;;;5067413;28;20052;-67
2021/04/18 01:25:09;;;;;;;18.52;6.03;;;;;;;;;;5054293;28;20566;-66
2021/04/18 01:27:39;;;;;;;14.65;5.97;;;;;;;;;;5070768;28;20048;-66
2021/04/18 01:30:06;;;;;;;11.02;5.70;;;;;;;;;;5071025;28;20028;-65
2021/04/18 01:32:31;;;;;;;17.38;5.95;;;;;;;;;;5070994;28;20036;-66
2021/04/18 01:34:57;;;;;;;14.52;6.40;;;;;;;;;;5065878;28;20177;-66
2021/04/18 01:37:22;;;;;;;17.52;5.85;;;;;;;;;;5067598;28;20021;-65
2021/04/18 01:39:47;;;;;;;16.73;6.00;;;;;;;;;;5060950;28;20103;-66
2021/04/18 01:42:13;;;;;;;9.73;5.90;;;;;;;;;;5070669;28;20492;-66
2021/04/18 01:44:38;;;;;;;14.10;5.55;;;;;;;;;;5070971;28;20460;-67
2021/04/18 01:47:04;;;;;;;10.45;5.45;;;;;;;;;;5070487;28;20085;-66
2021/04/18 01:49:29;;;;;;;12.93;5.32;;;;;;;;;;5070930;28;20048;-67
2021/04/18 01:51:54;;;;;;;12.38;5.93;;;;;;;;;;5069843;28;20508;-66
2021/04/18 01:54:20;;;;;;;16.02;5.80;;;;;;;;;;5053564;28;20021;-66
2021/04/18 01:56:45;;;;;;;14.45;5.57;;;;;;;;;;5061642;28;20052;-66
2021/04/18 01:59:10;;;;;;;13.32;5.57;;;;;;;;;;5067323;28;20122;-66
2021/04/18 02:01:39;;;;;;;13.33;5.63;;;;;;;;;;5069462;28;20396;-66
2021/04/18 02:04:21;;;;;;;16.95;5.90;;;;;;;;;;5067784;28;20262;-67
2021/04/18 02:06:46;;;;;;;12.32;5.38;;;;;;;;;;5064837;28;20399;-68
2021/04/18 02:09:11;;;;;;;15.57;5.75;;;;;;;;;;5069591;28;20222;-65
2021/04/18 02:11:39;;;;;;;16.40;5.88;;;;;;;;;;5070124;28;20074;-66
2021/04/18 02:14:05;;;;;;;16.60;5.80;;;;;;;;;;5070262;28;20017;-67
2021/04/18 02:16:30;;;;;;;11.52;5.50;;;;;;;;;;5061929;28;20028;-66
2021/04/18 02:18:55;;;;;;;18.48;7.25;;;;;;;;;;5062845;28;20032;-66
2021/04/18 02:21:21;;;;;;;12.50;5.78;;;;;;;;;;5066793;28;20103;-66
2021/04/18 02:23:46;;;;;;;15.10;5.40;;;;;;;;;;5070138;28;20091;-66
2021/04/18 02:26:11;;;;;;;11.93;5.50;;;;;;;;;;5070187;28;20031;-66
2021/04/18 02:28:36;;;;;;;21.15;6.28;;;;;;;;;;5061558;28;20327;-65
2021/04/18 02:31:01;;;;;;;16.02;5.65;;;;;;;;;;5070499;28;20036;-66
2021/04/18 02:33:26;;;;;;;13.43;6.47;;;;;;;;;;5068927;28;20023;-66
2021/04/18 02:35:52;;;;;;;10.97;5.00;;;;;;;;;;5070259;28;20492;-65
2021/04/18 02:38:17;;;;;;;13.18;5.30;;;;;;;;;;5069786;28;20263;-67
2021/04/18 02:40:42;;;;;;;12.90;4.93;;;;;;;;;;5070121;28;20028;-65
2021/04/18 02:43:07;;;;;;;11.00;5.37;;;;;;;;;;5070126;28;20258;-67
2021/04/18 02:45:32;;;;;;;14.88;5.55;;;;;;;;;;5073114;28;20266;-65
2021/04/18 02:47:57;;;;;;;14.93;5.38;;;;;;;;;;5073080;28;20016;-67
2021/04/18 02:50:23;;;;;;;13.13;5.00;;;;;;;;;;5074084;28;20534;-65
2021/04/18 02:52:48;;;;;;;15.98;6.10;;;;;;;;;;5074384;28;20465;-66
2021/04/18 02:55:13;;;;;;;14.60;5.80;;;;;;;;;;5073918;28;20029;-65
2021/04/18 02:57:38;;;;;;;11.52;5.18;;;;;;;;;;5073713;28;20048;-65
2021/04/18 03:00:04;;;;;;;10.23;5.43;;;;;;;;;;5073700;28;20028;-67
2021/04/18 03:02:29;;;;;;;18.65;5.78;;;;;;;;;;5073588;28;20107;-66
2021/04/18 03:04:57;;;;;;;10.85;5.35;;;;;;;;;;5073741;28;20020;-66
2021/04/18 03:07:22;;;;;;;10.60;5.82;;;;;;;;;;5073101;28;20410;-66
2021/04/18 03:09:47;;;;;;;16.17;5.30;;;;;;;;;;5072907;28;20028;-66
2021/04/18 03:12:13;;;;;;;18.73;5.93;;;;;;;;;;5073753;28;20266;-65
2021/04/18 03:14:38;;;;;;;12.83;5.47;;;;;;;;;;5073477;28;20490;-66
2021/04/18 03:17:03;;;;;;;11.43;4.82;;;;;;;;;;5073538;28;20266;-65
2021/04/18 03:19:28;;;;;;;12.18;5.25;;;;;;;;;;5072684;28;20033;-66
2021/04/18 03:21:54;;;;;;;12.95;5.45;;;;;;;;;;5071392;28;20024;-66
2021/04/18 03:24:19;;;;;;;13.70;5.00;;;;;;;;;;5062387;28;20082;-65
2021/04/18 03:26:44;;;;;;;13.43;5.95;;;;;;;;;;5065310;28;20086;-65
2021/04/18 03:29:09;;;;;;;14.57;5.15;;;;;;;;;;5073364;28;20024;-66
2021/04/18 03:31:34;;;;;;;14.98;5.45;;;;;;;;;;5073351;28;20031;-65
2021/04/18 03:34:00;;;;;;;16.33;4.80;;;;;;;;;;5073530;28;20009;-66
2021/04/18 03:36:25;;;;;;;9.32;4.85;;;;;;;;;;5072022;28;20463;-66
2021/04/18 03:38:50;;;;;;;13.38;4.43;;;;;;;;;;5071707;28;20038;-65
2021/04/18 03:41:15;;;;;;;14.15;4.55;;;;;;;;;;5072993;28;20036;-65
2021/04/18 03:43:41;;;;;;;14.65;5.88;;;;;;;;;;5072544;28;20028;-65
2021/04/18 03:46:06;;;;;;;14.68;4.93;;;;;;;;;;5061503;28;20050;-67
2021/04/18 03:48:31;;;;;;;12.75;5.45;;;;;;;;;;5051663;28;20417;-66
2021/04/18 03:50:56;;;;;;;20.75;6.28;;;;;;;;;;5072676;28;20477;-66
2021/04/18 03:53:22;;;;;;;17.80;5.20;;;;;;;;;;5071413;28;20051;-65
2021/04/18 03:55:47;;;;;;;11.45;4.90;;;;;;;;;;5072100;28;20168;-65
2021/04/18 03:58:12;;;;;;;10.95;4.38;;;;;;;;;;5067944;28;20389;-65
2021/04/18 04:00:37;;;;;;;18.00;4.68;;;;;;;;;;5063608;28;20021;-66
2021/04/18 04:03:03;;;;;;;15.20;5.40;;;;;;;;;;5059430;28;20032;-65
2021/04/18 04:05:28;;;;;;;16.08;4.65;;;;;;;;;;5072923;28;20008;-66
2021/04/18 04:07:53;;;;;;;17.35;5.20;;;;;;;;;;5072360;28;20095;-66
2021/04/18 04:10:18;;;;;;;16.10;5.30;;;;;;;;;;5071108;28;20031;-68
2021/04/18 04:12:43;;;;;;;13.07;4.80;;;;;;;;;;5071115;28;20828;-66
2021/04/18 04:15:09;;;;;;;16.90;6.30;;;;;;;;;;5056851;28;20025;-67
2021/04/18 04:17:34;;;;;;;11.90;5.30;;;;;;;;;;5072280;28;20027;-65
2021/04/18 04:19:59;;;;;;;18.38;6.05;;;;;;;;;;5072261;28;20052;-65
2021/04/18 04:22:24;;;;;;;17.02;5.88;;;;;;;;;;5071980;28;20107;-65
2021/04/18 04:24:50;;;;;;;14.02;5.47;;;;;;;;;;5071385;28;20230;-66
2021/04/18 04:27:16;;;;;;;23.38;6.07;;;;;;;;;;5064934;28;20035;-65
2021/04/18 04:29:42;;;;;;;14.70;5.55;;;;;;;;;;5071570;28;20032;-67
2021/04/18 04:32:07;;;;;;;13.98;5.75;;;;;;;;;;5072309;28;20025;-66
2021/04/18 04:34:32;;;;;;;14.00;4.85;;;;;;;;;;5072373;28;20088;-65
2021/04/18 04:36:58;;;;;;;25.88;6.22;;;;;;;;;;5071908;28;20024;-66
2021/04/18 04:39:23;;;;;;;13.88;6.13;;;;;;;;;;5071153;28;20515;-65
2021/04/18 04:41:48;;;;;;;16.48;7.30;;;;;;;;;;5071931;28;20469;-65
2021/04/18 04:44:16;;;;;;;15.20;5.83;;;;;;;;;;5071310;28;20533;-66
2021/04/18 04:46:42;;;;;;;12.45;5.85;;;;;;;;;;5071679;28;20263;-67
2021/04/18 04:49:07;;;;;;;14.57;5.50;;;;;;;;;;5071321;28;20024;-66
2021/04/18 04:51:33;;;;;;;11.70;5.82;;;;;;;;;;5071838;28;20034;-65
2021/04/18 04:53:58;;;;;;;14.43;5.47;;;;;;;;;;5053678;28;20017;-66
2021/04/18 04:56:23;;;;;;;13.60;6.00;;;;;;;;;;5071738;28;20286;-65
2021/04/18 04:58:48;;;;;;;16.77;6.23;;;;;;;;;;5071099;28;20024;-66
2021/04/18 05:01:13;;;;;;;19.33;5.43;;;;;;;;;;5071743;28;20808;-65
2021/04/18 05:03:38;;;;;;;16.58;5.93;;;;;;;;;;5071200;28;20257;-66
2021/04/18 05:06:04;;;;;;;15.40;5.27;;;;;;;;;;5071359;28;20542;-64
2021/04/18 05:08:29;;;;;;;19.58;5.60;;;;;;;;;;5068791;28;20365;-66
2021/04/18 05:10:54;;;;;;;13.90;6.55;;;;;;;;;;5071513;28;20487;-64
2021/04/18 05:13:19;;;;;;;12.68;5.30;;;;;;;;;;5070969;28;20023;-65
2021/04/18 05:15:44;;;;;;;14.73;6.37;;;;;;;;;;5071287;28;20078;-67
2021/04/18 05:18:09;;;;;;;16.55;6.80;;;;;;;;;;5070747;28;20287;-65
2021/04/18 05:20:35;;;;;;;18.42;5.95;;;;;;;;;;5071437;28;20099;-65
2021/04/18 05:23:00;;;;;;;19.83;5.97;;;;;;;;;;5070332;28;20025;-66
2021/04/18 05:25:25;;;;;;;18.98;6.65;;;;;;;;;;5063064;28;20028;-65
2021/04/18 05:27:50;;;;;;;11.27;5.32;;;;;;;;;;5064811;28;20454;-65
2021/04/18 05:30:16;;;;;;;21.20;5.67;;;;;;;;;;5070821;28;20036;-66
2021/04/18 05:32:41;;;;;;;18.10;5.93;;;;;;;;;;5070033;28;20320;-65
2021/04/18 05:35:07;;;;;;;17.27;6.07;;;;;;;;;;5067704;28;20024;-66
2021/04/18 05:37:33;;;;;;;14.63;6.43;;;;;;;;;;5058500;28;20018;-65
2021/04/18 05:39:58;;;;;;;18.20;6.47;;;;;;;;;;5058446;28;20024;-66
2021/04/18 05:42:23;;;;;;;18.67;6.18;;;;;;;;;;5068524;28;20071;-65
2021/04/18 05:44:48;;;;;;;17.10;6.43;;;;;;;;;;5068471;28;20025;-66
2021/04/18 05:47:14;;;;;;;17.30;6.47;;;;;;;;;;5069146;28;20020;-66
2021/04/18 05:49:39;;;;;;;14.73;6.43;;;;;;;;;;5067764;28;20193;-65
2021/04/18 05:52:04;;;;;;;24.05;8.38;;;;;;;;;;5065376;28;20051;-65
2021/04/18 05:54:30;;;;;;;21.52;7.38;;;;;;;;;;5057228;28;20526;-65
2021/04/18 05:56:55;;;;;;;30.52;9.63;;;;;;;;;;5059204;28;20025;-65
2021/04/18 05:59:20;;;;;;;21.08;6.82;;;;;;;;;;5062296;28;20086;-65
2021/04/18 06:01:45;;;;;;;15.00;6.82;;;;;;;;;;5051580;28;20131;-66
2021/04/18 06:04:10;;;;;;;21.45;7.60;;;;;;;;;;5059387;28;20032;-66
2021/04/18 06:06:36;;;;;;;18.52;7.97;;;;;;;;;;5059383;28;20047;-66
2021/04/18 06:09:01;;;;;;;18.08;8.07;;;;;;;;;;5069615;28;20036;-67
2021/04/18 06:11:26;;;;;;;16.60;8.20;;;;;;;;;;5061997;28;20033;-65
2021/04/18 06:13:52;;;;;;;21.90;7.72;;;;;;;;;;5068510;28;20492;-66
2021/04/18 06:16:17;;;;;;;18.98;6.85;;;;;;;;;;5062748;28;20211;-66
2021/04/18 06:18:43;;;;;;;28.70;8.35;;;;;;;;;;5069287;28;20473;-65
2021/04/18 06:21:08;;;;;;;21.80;7.63;;;;;;;;;;5060053;28;20033;-66
2021/04/18 06:23:33;;;;;;;26.50;7.60;;;;;;;;;;5050544;28;20024;-65
2021/04/18 06:25:58;;;;;;;19.45;7.22;;;;;;;;;;5052632;28;20024;-66
2021/04/18 06:28:23;;;;;;;23.95;7.10;;;;;;;;;;5058982;28;20029;-65
2021/04/18 06:30:49;;;;;;;22.52;8.05;;;;;;;;;;5067856;28;20099;-66
2021/04/18 06:33:14;;;;;;;21.38;7.35;;;;;;;;;;5070239;28;20038;-65
2021/04/18 06:35:39;;;;;;;16.40;6.80;;;;;;;;;;5069978;28;20465;-67
2021/04/18 06:38:04;;;;;;;18.70;7.60;;;;;;;;;;5068541;28;20017;-65
2021/04/18 06:40:30;;;;;;;17.95;8.38;;;;;;;;;;5065993;28;20028;-66
2021/04/18 06:42:57;;;;;;;24.00;8.05;;;;;;;;;;5061711;28;20013;-65
2021/04/18 06:45:22;;;;;;;22.08;7.93;;;;;;;;;;5061971;28;20078;-66
2021/04/18 06:47:47;;;;;;;20.45;8.18;;;;;;;;;;5069517;28;20024;-65
2021/04/18 06:50:13;;;;;;;18.17;8.10;;;;;;;;;;5069116;28;20385;-65
2021/04/18 06:52:38;;;;;;;24.08;8.52;;;;;;;;;;5066167;28;20032;-67
2021/04/18 06:55:04;;;;;;;19.70;9.20;;;;;;;;;;5065786;28;20100;-65
2021/04/18 06:57:30;;;;;;;23.58;8.52;;;;;;;;;;5067386;28;20020;-66
2021/04/18 06:59:55;;;;;;;30.83;10.23;;;;;;;;;;5061414;28;20055;-66
2021/04/18 07:02:24;;;;;;;22.13;8.65;;;;;;;;;;5049065;28;20036;-66
2021/04/18 07:05:04;;;;;;;25.10;9.45;;;;;;;;;;5066651;28;20032;-66
2021/04/18 07:07:31;;;;;;;28.83;8.40;;;;;;;;;;5067918;28;20032;-65
2021/04/18 07:09:56;;;;;;;21.23;8.93;;;;;;;;;;5066325;28;20027;-66
2021/04/18 07:12:25;;;;;;;20.52;9.13;;;;;;;;;;5067494;28;20012;-66
2021/04/18 07:14:50;;;;;;;28.98;9.88;;;;;;;;;;5066906;28;20044;-66
2021/04/18 07:17:15;;;;;;;27.27;9.70;;;;;;;;;;5062689;28;20055;-65
2021/04/18 07:19:42;;;;;;;24.33;10.95;;;;;;;;;;5066811;28;20562;-66
2021/04/18 07:22:07;;;;;;;27.27;9.18;;;;;;;;;;5067091;28;20035;-65
2021/04/18 07:24:33;;;;;;;26.13;9.90;;;;;;;;;;5067746;28;20171;-65
2021/04/18 07:27:00;;;;;;;23.55;10.18;;;;;;;;;;5067289;28;20024;-65
2021/04/18 07:29:26;;;;;;;24.70;10.88;;;;;;;;;;5067494;28;20044;-66
2021/04/18 07:31:52;;;;;;;27.65;9.23;;;;;;;;;;5062472;28;20017;-67
2021/04/18 07:34:18;;;;;;;24.05;10.43;;;;;;;;;;5051432;28;20031;-66
2021/04/18 07:36:45;;;;;;;20.90;9.70;;;;;;;;;;5051320;28;20049;-66
2021/04/18 07:39:11;;;;;;;29.10;9.73;;;;;;;;;;5059139;28;20463;-65
2021/04/18 07:41:41;;;;;;;22.85;9.13;;;;;;;;;;5063934;28;20036;-66
2021/04/18 07:44:08;;;;;;;23.02;9.43;;;;;;;;;;5067943;28;20032;-66
2021/04/18 07:46:33;;;;;;;23.67;9.45;;;;;;;;;;5064300;28;20485;-65
2021/04/18 07:48:59;;;;;;;24.63;10.30;;;;;;;;;;5056672;28;20453;-64
2021/04/18 07:51:25;;;;;;;21.20;10.15;;;;;;;;;;5063499;28;20385;-64
2021/04/18 07:53:51;;;;;;;21.33;9.55;;;;;;;;;;5072490;28;20112;-66
2021/04/18 07:56:16;;;;;;;30.70;11.82;;;;;;;;;;5073292;28;20370;-64
2021/04/18 07:58:43;;;;;;;22.35;9.45;;;;;;;;;;5072647;28;20381;-64
2021/04/18 08:01:08;;;;;;;23.23;10.13;;;;;;;;;;5070922;28;20024;-64
2021/04/18 08:03:35;;;;;;;22.77;10.48;;;;;;;;;;5052919;28;20358;-65
2021/04/18 08:06:01;;;;;;;27.45;10.07;;;;;;;;;;5054775;28;20021;-66
2021/04/18 08:08:41;;;;;;;20.55;9.55;;;;;;;;;;5071965;28;20032;-64
2021/04/18 08:11:09;;;;;;;21.27;9.48;;;;;;;;;;5072686;28;20028;-64
2021/04/18 08:13:38;;;;;;;23.60;9.75;;;;;;;;;;5072689;28;20058;-64
2021/04/18 08:16:04;;;;;;;25.50;9.90;;;;;;;;;;5072682;28;20404;-66
2021/04/18 08:18:29;;;;;;;26.42;9.20;;;;;;;;;;5058265;28;20031;-65
2021/04/18 08:20:55;;;;;;;22.73;9.13;;;;;;;;;;5052794;28;20092;-64
2021/04/18 08:23:21;;;;;;;20.30;8.77;;;;;;;;;;5065921;28;20265;-67
2021/04/18 08:25:59;;;;;;;22.75;9.15;;;;;;;;;;5072498;28;20028;-64
2021/04/18 08:28:24;;;;;;;24.13;9.00;;;;;;;;;;5071732;28;20021;-65
2021/04/18 08:31:00;;;;;;;23.40;9.05;;;;;;;;;;5053752;28;20017;-65
2021/04/18 08:33:40;;;;;;;20.38;8.60;;;;;;;;;;5066429;28;20024;-68
2021/04/18 08:36:05;;;;;;;;;;;;;;;;;;5056031;28;20042;-66
2021/04/18 08:38:31;;;;;;;24.85;9.07;;;;;;;;;;5071521;28;19915;-64
2021/04/18 08:41:03;;;;;;;20.50;8.77;;;;;;;;;;5071960;28;20435;-67
2021/04/18 08:43:28;;;;;;;19.58;8.48;;;;;;;;;;5071251;28;20290;-66
2021/04/18 08:45:55;;;;;;;18.27;7.77;;;;;;;;;;5070744;28;20056;-64
2021/04/18 08:48:20;;;;;;;18.05;8.63;;;;;;;;;;5055522;28;20283;-66
2021/04/18 08:50:59;;;;;;;17.48;7.72;;;;;;;;;;5067612;28;20485;-64
2021/04/18 08:53:25;;;;;;;16.00;8.80;;;;;;;;;;5065815;28;20028;-67
2021/04/18 08:55:51;;;;;;;13.57;6.88;;;;;;;;;;5055891;28;20035;-68
2021/04/18 08:58:29;;;;;;;25.67;8.40;;;;;;;;;;5066520;28;20298;-64
2021/04/18 09:01:01;;;;;;;21.05;7.50;;;;;;;;;;5061490;28;20330;-67
2021/04/18 09:03:26;;;;;;;18.95;8.88;;;;;;;;;;5069404;28;20032;-65
2021/04/18 09:06:27;;;;;;;17.63;7.50;;;;;;;;;;5057327;28;20029;-65
2021/04/18 09:08:53;;;;;;;17.15;8.82;;;;;;;;;;5063669;28;20287;-69
2021/04/18 09:11:19;;;;;;;22.45;8.10;;;;;;;;;;5048979;28;20362;-64
2021/04/18 09:13:51;;;;;;;24.15;9.10;;;;;;;;;;5061143;28;20056;-64
2021/04/18 09:16:26;;;;;;;29.58;10.10;;;;;;;;;;5054092;28;20087;-65
2021/04/18 09:18:52;;;;;;;23.35;8.18;;;;;;;;;;5061228;28;20040;-66
2021/04/18 09:21:17;;;;;;;17.00;7.95;;;;;;;;;;5069050;28;20388;-64
2021/04/18 09:24:15;;;;;;;20.33;8.73;;;;;;;;;;5067719;28;20494;-65
2021/04/18 09:26:52;;;;;;;29.05;8.45;;;;;;;;;;5022281;28;20048;-65
2021/04/18 09:29:17;;;;;;;21.33;8.38;;;;;;;;;;5054196;28;20515;-67
2021/04/18 09:32:12;;;;;;;16.47;9.17;;;;;;;;;;5067608;28;20079;-68
2021/04/18 09:34:38;;;;;;;17.67;8.63;;;;;;;;;;5035445;28;20272;-64
2021/04/18 09:37:06;;;;;;;20.20;8.50;;;;;;;;;;5049155;28;20017;-65
2021/04/18 09:39:32;;;;;;;19.42;8.55;;;;;;;;;;5065690;28;20086;-66
2021/04/18 09:41:57;;;;;;;23.65;9.55;;;;;;;;;;5064716;28;20427;-65
2021/04/18 09:44:31;;;;;;;25.40;10.38;;;;;;;;;;5060139;28;20024;-65
2021/04/18 09:46:58;;;;;;;23.48;8.93;;;;;;;;;;5069177;28;20028;-65
2021/04/18 09:49:24;;;;;;;21.45;8.98;;;;;;;;;;5068454;28;20024;-65
2021/04/18 09:51:58;;;;;;;25.70;8.20;;;;;;;;;;5068467;28;20380;-66
2021/04/18 09:54:41;;;;;;;19.83;8.93;;;;;;;;;;5065076;28;20013;-66
2021/04/18 09:57:12;;;;;;;25.88;9.75;;;;;;;;;;5058020;28;20021;-65
2021/04/18 09:59:38;;;;;;;21.05;9.18;;;;;;;;;;5068974;28;20126;-67
2021/04/18 10:02:09;;;;;;;23.20;9.80;;;;;;;;;;5037951;28;20151;-67
2021/04/18 10:04:34;;;;;;;19.88;9.70;;;;;;;;;;5065841;28;20021;-65
2021/04/18 10:06:59;;;;;;;20.45;9.18;;;;;;;;;;5068246;28;20030;-66
2021/04/18 10:09:25;;;;;;;23.35;10.00;;;;;;;;;;5064051;28;20507;-65
2021/04/18 10:11:57;;;;;;;28.73;12.10;;;;;;;;;;5051702;28;20044;-66
2021/04/18 10:14:22;;;;;;;30.48;11.18;;;;;;;;;;5055369;28;20349;-66
2021/04/18 10:16:47;;;;;;;28.77;11.13;;;;;;;;;;5068873;28;20548;-65
2021/04/18 10:19:17;;;;;;;23.08;10.63;;;;;;;;;;5067420;28;20491;-65
2021/04/18 10:22:03;;;;;;;24.15;10.43;;;;;;;;;;5059960;28;20448;-65
2021/04/18 10:24:29;;;;;;;26.02;12.13;;;;;;;;;;5068103;28;20193;-66
2021/04/18 10:26:54;;;;;;;26.30;11.80;;;;;;;;;;5068775;28;20627;-67
2021/04/18 10:29:19;;;;;;;23.90;10.50;;;;;;;;;;5064382;28;20037;-66
2021/04/18 10:31:44;;;;;;;29.17;12.68;;;;;;;;;;5059551;28;20631;-66
2021/04/18 10:34:11;;;;;;;23.30;11.33;;;;;;;;;;5066877;28;20059;-66
2021/04/18 10:36:36;;;;;;;27.63;12.57;;;;;;;;;;5060312;28;20271;-66
2021/04/18 10:39:01;;;;;;;37.22;13.20;;;;;;;;;;5059605;28;20469;-66
2021/04/18 10:41:27;;;;;;;26.48;10.35;;;;;;;;;;5067117;28;20214;-67
2021/04/18 10:43:52;;;;;;;24.70;10.37;;;;;;;;;;5065127;28;20021;-67
2021/04/18 10:46:17;;;;;;;23.37;10.07;;;;;;;;;;5066779;28;20269;-67
2021/04/18 10:48:42;;;;;;;30.02;11.15;;;;;;;;;;5068936;28;20761;-68
2021/04/18 10:51:07;;;;;;;26.17;10.47;;;;;;;;;;5068127;28;20100;-68
2021/04/18 10:53:32;;;;;;;18.27;9.85;;;;;;;;;;5060427;28;20267;-67
2021/04/18 10:55:58;;;;;;;24.33;9.60;;;;;;;;;;5068340;28;20020;-67
2021/04/18 10:58:23;;;;;;;20.10;8.85;;;;;;;;;;5069309;28;20518;-67
2021/04/18 11:00:48;;;;;;;18.73;10.75;;;;;;;;;;5069925;28;20025;-66
2021/04/18 11:03:13;;;;;;;22.60;10.05;;;;;;;;;;5068813;28;20033;-68
2021/04/18 11:05:39;;;;;;;18.97;9.60;;;;;;;;;;5062919;28;20028;-67
2021/04/18 11:08:04;;;;;;;22.70;9.57;;;;;;;;;;5073005;28;20342;-67
2021/04/18 11:10:29;;;;;;;22.30;9.38;;;;;;;;;;5073226;28;20435;-66
2021/04/18 11:12:54;;;;;;;24.63;9.93;;;;;;;;;;5067623;28;20396;-67
2021/04/18 11:15:20;;;;;;;22.67;9.57;;;;;;;;;;5069727;28;20255;-67
2021/04/18 11:17:46;;;;;;;25.40;10.10;;;;;;;;;;5072773;28;20021;-67
2021/04/18 11:20:12;;;;;;;25.65;9.18;;;;;;;;;;5073530;28;20111;-67
2021/04/18 11:22:38;;;;;;;14.82;8.52;;;;;;;;;;5072248;28;20024;-67
2021/04/18 11:25:06;;;;;;;24.27;9.38;;;;;;;;;;5036550;28;20025;-67
2021/04/18 11:27:31;;;;;;;21.52;9.65;;;;;;;;;;5072237;28;20024;-67
2021/04/18 11:29:56;;;;;;;21.13;8.93;;;;;;;;;;5072208;28;20027;-68
2021/04/18 11:32:23;;;;;;;23.90;10.27;;;;;;;;;;5073388;28;20380;-67
2021/04/18 11:34:48;;;;;;;21.02;9.88;;;;;;;;;;5068336;28;20273;-66
2021/04/18 11:37:13;;;;;;;22.58;9.05;;;;;;;;;;5071097;28;20025;-67
2021/04/18 11:39:39;;;;;;;29.98;10.63;;;;;;;;;;5072413;28;20024;-67
2021/04/18 11:42:04;;;;;;;20.52;9.10;;;;;;;;;;5072027;28;20492;-67
2021/04/18 11:44:29;;;;;;;21.85;10.52;;;;;;;;;;5072111;28;20487;-67
2021/04/18 11:46:54;;;;;;;26.73;11.53;;;;;;;;;;5072559;28;20025;-67
2021/04/18 11:49:20;;;;;;;23.73;10.53;;;;;;;;;;5068143;28;20616;-67
2021/04/18 11:51:45;;;;;;;19.67;9.77;;;;;;;;;;5071740;28;20317;-67
2021/04/18 11:54:10;;;;;;;21.45;10.55;;;;;;;;;;5072608;28;20120;-66
2021/04/18 11:56:36;;;;;;;24.10;10.95;;;;;;;;;;5071586;28;20066;-67
2021/04/18 11:59:01;;;;;;;28.30;11.30;;;;;;;;;;5088403;22;20140;-67
2021/04/18 12:01:26;;;;;;;22.08;11.05;;;;;;;;;;5060980;28;20021;-67
2021/04/18 12:03:52;;;;;;;26.23;9.98;;;;;;;;;;5051938;28;20424;-67
2021/04/18 12:06:17;;;;;;;25.95;10.65;;;;;;;;;;5052250;28;20029;-67
2021/04/18 12:08:43;;;;;;;23.88;11.02;;;;;;;;;;5047108;28;20112;-67
2021/04/18 12:11:08;;;;;;;22.50;10.90;;;;;;;;;;5034490;28;20055;-69
2021/04/18 12:13:33;;;;;;;26.13;10.77;;;;;;;;;;5034399;28;20312;-68
2021/04/18 12:15:59;;;;;;;24.40;10.05;;;;;;;;;;5031476;28;20053;-69
2021/04/18 12:18:24;;;;;;;24.48;10.90;;;;;;;;;;5034842;28;20103;-69
2021/04/18 12:20:49;;;;;;;25.60;11.23;;;;;;;;;;5036355;28;20140;-67
2021/04/18 12:23:14;;;;;;;24.40;10.95;;;;;;;;;;5042082;28;20395;-69
2021/04/18 12:25:40;;;;;;;20.85;10.07;;;;;;;;;;5042860;28;20037;-66
2021/04/18 12:28:05;;;;;;;30.52;11.23;;;;;;;;;;5032171;28;20018;-67
2021/04/18 12:30:30;;;;;;;29.02;10.98;;;;;;;;;;5031559;28;20044;-69
2021/04/18 12:32:56;;;;;;;30.35;11.18;;;;;;;;;;5039881;28;20397;-67
2021/04/18 12:35:21;;;;;;;26.87;11.73;;;;;;;;;;5033286;28;20033;-67
2021/04/18 12:37:46;;;;;;;28.30;12.07;;;;;;;;;;5032978;28;20624;-67
2021/04/18 12:40:12;;;;;;;28.30;12.45;;;;;;;;;;5032365;28;20484;-67
2021/04/18 12:42:37;;;;;;;26.88;12.63;;;;;;;;;;5036101;28;20609;-67
2021/04/18 12:45:03;;;;;;;29.55;11.95;;;;;;;;;;5034496;28;20021;-67
2021/04/18 12:47:28;;;;;;;23.83;11.10;;;;;;;;;;5032600;28;20108;-67
2021/04/18 12:49:55;;;;;;;32.50;11.70;;;;;;;;;;5031037;28;20075;-67
2021/04/18 12:52:20;;;;;;;26.75;10.20;;;;;;;;;;5031624;28;20271;-66
2021/04/18 12:54:45;;;;;;;29.23;11.67;;;;;;;;;;5031509;28;20021;-67
2021/04/18 12:57:16;;;;;;;22.93;12.07;;;;;;;;;;5039349;28;20636;-67
2021/04/18 12:59:42;;;;;;;31.42;12.50;;;;;;;;;;5037436;28;20330;-67
2021/04/18 13:02:07;;;;;;;29.73;12.77;;;;;;;;;;5031274;28;20403;-67
2021/04/18 13:04:32;;;;;;;30.43;13.87;;;;;;;;;;5031252;28;20087;-67
2021/04/18 13:06:57;;;;;;;39.40;12.47;;;;;;;;;;5031891;28;20279;-67
2021/04/18 13:09:23;;;;;;;28.00;12.63;;;;;;;;;;5030322;28;20284;-68
2021/04/18 13:11:48;;;;;;;25.38;14.05;;;;;;;;;;5035173;28;20275;-68
2021/04/18 13:14:13;;;;;;;25.00;13.10;;;;;;;;;;5032416;28;20095;-67
2021/04/18 13:16:38;;;;;;;37.23;12.93;;;;;;;;;;5035082;28;20412;-67
2021/04/18 13:19:04;;;;;;;28.67;11.90;;;;;;;;;;5041973;28;20287;-68
2021/04/18 13:21:29;;;;;;;25.60;11.57;;;;;;;;;;5029657;28;20040;-68
2021/04/18 13:23:57;;;;;;;22.83;12.43;;;;;;;;;;5027839;28;20357;-67
2021/04/18 13:26:23;;;;;;;30.17;14.73;;;;;;;;;;5027576;28;20072;-67
2021/04/18 13:28:49;;;;;;;31.98;13.52;;;;;;;;;;5012260;28;20053;-67
2021/04/18 13:31:14;;;;;;;29.02;13.13;;;;;;;;;;5030355;28;20090;-67
2021/04/18 13:33:39;;;;;;;27.00;11.67;;;;;;;;;;5030556;28;20025;-67
2021/04/18 13:36:04;;;;;;;34.37;13.00;;;;;;;;;;5030146;28;20295;-67
2021/04/18 13:38:30;;;;;;;30.00;12.88;;;;;;;;;;5029165;28;20264;-67
2021/04/18 13:40:55;;;;;;;26.43;13.07;;;;;;;;;;5030549;28;20025;-67
2021/04/18 13:43:20;;;;;;;23.47;11.97;;;;;;;;;;5030539;28;20339;-68
2021/04/18 13:45:45;;;;;;;27.20;11.73;;;;;;;;;;5030418;28;20256;-67
2021/04/18 13:48:10;;;;;;;21.67;10.23;;;;;;;;;;5030292;28;20024;-69
2021/04/18 13:50:36;;;;;;;30.05;12.15;;;;;;;;;;5029766;28;20283;-68
2021/04/18 13:53:01;;;;;;;23.47;10.73;;;;;;;;;;5029306;28;20501;-69
2021/04/18 13:55:26;;;;;;;20.35;10.80;;;;;;;;;;5030158;28;20267;-67
2021/04/18 13:57:51;;;;;;;23.52;10.90;;;;;;;;;;5029842;28;20498;-68
2021/04/18 14:00:18;;;;;;;27.23;9.80;;;;;;;;;;5029537;28;20029;-67
2021/04/18 14:02:43;;;;;;;25.67;11.20;;;;;;;;;;5030392;28;20260;-69
2021/04/18 14:05:12;;;;;;;23.10;10.90;;;;;;;;;;5029837;28;20477;-69
2021/04/18 14:07:38;;;;;;;25.30;10.65;;;;;;;;;;5030072;28;20028;-66
2021/04/18 14:10:04;;;;;;;19.30;9.45;;;;;;;;;;5029230;28;20025;-69
2021/04/18 14:12:30;;;;;;;20.67;10.80;;;;;;;;;;5028716;28;20029;-68
2021/04/18 14:14:55;;;;;;;27.08;10.98;;;;;;;;;;5032840;28;20071;-68
2021/04/18 14:17:20;;;;;;;17.40;9.67;;;;;;;;;;5029663;28;20021;-67
2021/04/18 14:19:45;;;;;;;22.83;10.75;;;;;;;;;;5029128;28;20268;-69